sensor_id;sensor_type;location;lat;lon;timestamp;pressure;altitude;pressure_sealevel;temperature;humidity
47753;BME280;2038;51.728;6.674;2022-09-28T00:01:15;98896.16;;;9.87;100.00
47753;BME280;2038;51.728;6.674;2022-09-28T00:03:46;98891.91;;;9.86;100.00
47753;BME280;2038;51.728;6.674;2022-09-28T00:06:16;98894.66;;;9.93;100.00
47753;BME280;2038;51.728;6.674;2022-09-28T00:08:44;98891.25;;;9.92;100.00
47753;BME280;2038;51.728;6.674;2022-09-28T00:11:12;98889.84;;;10.00;100.00
47753;BME280;2038;51.728;6.674;2022-09-28T00:13:41;98886.91;;;9.90;100.00
47753;BME280;2038;51.728;6.674;2022-09-28T00:16:11;98895.03;;;10.03;100.00
47753;BME280;2038;51.728;6.674;2022-09-28T00:18:39;98889.22;;;10.06;100.00
47753;BME280;2038;51.728;6.674;2022-09-28T00:21:08;98892.47;;;10.02;100.00
47753;BME280;2038;51.728;6.674;2022-09-28T00:23:40;98884.06;;;10.04;100.00
47753;BME280;2038;51.728;6.674;2022-09-28T00:26:27;98884.03;;;10.03;100.00
47753;BME280;2038;51.728;6.674;2022-09-28T00:28:57;98878.41;;;9.89;100.00
47753;BME280;2038;51.728;6.674;2022-09-28T00:31:26;98882.47;;;10.06;100.00
47753;BME280;2038;51.728;6.674;2022-09-28T00:33:56;98879.16;;;10.09;100.00
47753;BME280;2038;51.728;6.674;2022-09-28T00:36:23;98879.94;;;10.08;100.00
47753;BME280;2038;51.728;6.674;2022-09-28T00:38:51;98878.16;;;10.05;100.00
47753;BME280;2038;51.728;6.674;2022-09-28T00:41:18;98876.53;;;10.07;100.00
47753;BME280;2038;51.728;6.674;2022-09-28T00:43:44;98868.50;;;9.97;100.00
47753;BME280;2038;51.728;6.674;2022-09-28T00:46:29;98874.94;;;10.09;100.00
47753;BME280;2038;51.728;6.674;2022-09-28T00:49:02;98868.47;;;10.17;100.00
47753;BME280;2038;51.728;6.674;2022-09-28T00:51:35;98868.34;;;10.14;100.00
47753;BME280;2038;51.728;6.674;2022-09-28T00:54:05;98868.59;;;10.20;100.00
47753;BME280;2038;51.728;6.674;2022-09-28T00:56:35;98859.75;;;10.12;100.00
47753;BME280;2038;51.728;6.674;2022-09-28T00:59:07;98860.28;;;10.04;100.00
47753;BME280;2038;51.728;6.674;2022-09-28T01:01:34;98861.94;;;10.02;100.00
47753;BME280;2038;51.728;6.674;2022-09-28T01:04:02;98864.50;;;10.03;100.00
47753;BME280;2038;51.728;6.674;2022-09-28T01:06:32;98860.97;;;10.00;100.00
47753;BME280;2038;51.728;6.674;2022-09-28T01:09:03;98856.28;;;9.86;100.00
47753;BME280;2038;51.728;6.674;2022-09-28T01:11:35;98858.22;;;9.94;100.00
47753;BME280;2038;51.728;6.674;2022-09-28T01:14:04;98856.78;;;10.00;100.00
47753;BME280;2038;51.728;6.674;2022-09-28T01:16:45;98860.56;;;10.11;100.00
47753;BME280;2038;51.728;6.674;2022-09-28T01:25:23;98859.56;;;10.06;100.00
47753;BME280;2038;51.728;6.674;2022-09-28T01:28:18;98860.63;;;10.13;100.00
47753;BME280;2038;51.728;6.674;2022-09-28T01:33:30;98857.59;;;10.21;100.00
47753;BME280;2038;51.728;6.674;2022-09-28T01:36:11;98860.13;;;10.21;100.00
47753;BME280;2038;51.728;6.674;2022-09-28T01:38:54;98860.25;;;10.24;100.00
47753;BME280;2038;51.728;6.674;2022-09-28T01:41:27;98860.94;;;10.20;100.00
47753;BME280;2038;51.728;6.674;2022-09-28T01:43:56;98864.19;;;10.16;100.00
47753;BME280;2038;51.728;6.674;2022-09-28T01:46:41;98868.41;;;10.16;100.00
47753;BME280;2038;51.728;6.674;2022-09-28T01:49:30;98866.69;;;10.15;100.00
47753;BME280;2038;51.728;6.674;2022-09-28T01:52:03;98863.13;;;10.11;100.00
47753;BME280;2038;51.728;6.674;2022-09-28T01:57:26;98853.78;;;10.10;100.00
47753;BME280;2038;51.728;6.674;2022-09-28T02:05:57;98857.75;;;10.04;100.00
47753;BME280;2038;51.728;6.674;2022-09-28T02:08:38;98845.38;;;10.13;100.00
47753;BME280;2038;51.728;6.674;2022-09-28T02:11:20;98847.97;;;10.14;100.00
47753;BME280;2038;51.728;6.674;2022-09-28T02:13:52;98845.50;;;10.16;100.00
47753;BME280;2038;51.728;6.674;2022-09-28T02:16:41;98845.19;;;10.08;100.00
47753;BME280;2038;51.728;6.674;2022-09-28T02:19:12;98842.97;;;10.16;100.00
47753;BME280;2038;51.728;6.674;2022-09-28T02:21:45;98841.00;;;10.32;100.00
47753;BME280;2038;51.728;6.674;2022-09-28T02:24:44;98847.97;;;10.14;100.00
47753;BME280;2038;51.728;6.674;2022-09-28T02:30:15;98843.41;;;10.06;100.00
47753;BME280;2038;51.728;6.674;2022-09-28T02:32:46;98833.44;;;10.12;100.00
47753;BME280;2038;51.728;6.674;2022-09-28T02:35:17;98833.41;;;10.10;100.00
47753;BME280;2038;51.728;6.674;2022-09-28T02:37:44;98840.41;;;10.16;100.00
47753;BME280;2038;51.728;6.674;2022-09-28T02:40:23;98841.34;;;10.18;100.00
47753;BME280;2038;51.728;6.674;2022-09-28T02:46:15;98840.47;;;10.17;100.00
47753;BME280;2038;51.728;6.674;2022-09-28T02:49:09;98841.34;;;10.18;100.00
47753;BME280;2038;51.728;6.674;2022-09-28T02:52:08;98841.38;;;10.19;100.00
47753;BME280;2038;51.728;6.674;2022-09-28T03:01:02;98836.16;;;10.15;100.00
47753;BME280;2038;51.728;6.674;2022-09-28T03:04:18;98840.00;;;10.05;100.00
47753;BME280;2038;51.728;6.674;2022-09-28T03:07:03;98835.00;;;10.08;100.00
47753;BME280;2038;51.728;6.674;2022-09-28T03:10:02;98844.28;;;10.06;100.00
47753;BME280;2038;51.728;6.674;2022-09-28T03:12:34;98843.34;;;10.04;100.00
47753;BME280;2038;51.728;6.674;2022-09-28T03:17:39;98853.50;;;10.03;100.00
47753;BME280;2038;51.728;6.674;2022-09-28T03:20:06;98853.25;;;9.97;100.00
47753;BME280;2038;51.728;6.674;2022-09-28T03:22:34;98855.03;;;9.99;100.00
47753;BME280;2038;51.728;6.674;2022-09-28T03:25:00;98855.00;;;9.98;100.00
47753;BME280;2038;51.728;6.674;2022-09-28T03:27:26;98853.31;;;9.98;100.00
47753;BME280;2038;51.728;6.674;2022-09-28T03:29:53;98851.78;;;10.03;100.00
47753;BME280;2038;51.728;6.674;2022-09-28T03:32:19;98860.88;;;9.97;100.00
47753;BME280;2038;51.728;6.674;2022-09-28T03:34:45;98851.13;;;9.85;100.00
47753;BME280;2038;51.728;6.674;2022-09-28T03:37:11;98855.63;;;9.92;100.00
47753;BME280;2038;51.728;6.674;2022-09-28T03:39:37;98854.63;;;9.88;100.00
47753;BME280;2038;51.728;6.674;2022-09-28T03:42:04;98860.13;;;9.99;100.00
47753;BME280;2038;51.728;6.674;2022-09-28T03:44:30;98858.28;;;9.95;100.00
47753;BME280;2038;51.728;6.674;2022-09-28T03:46:56;98858.16;;;9.92;100.00
47753;BME280;2038;51.728;6.674;2022-09-28T03:49:23;98857.44;;;9.95;100.00
47753;BME280;2038;51.728;6.674;2022-09-28T03:51:49;98860.78;;;9.94;100.00
47753;BME280;2038;51.728;6.674;2022-09-28T03:54:15;98860.50;;;9.86;100.00
47753;BME280;2038;51.728;6.674;2022-09-28T03:56:41;98862.75;;;9.78;100.00
47753;BME280;2038;51.728;6.674;2022-09-28T03:59:07;98863.59;;;9.79;100.00
47753;BME280;2038;51.728;6.674;2022-09-28T04:01:34;98866.31;;;9.83;100.00
47753;BME280;2038;51.728;6.674;2022-09-28T04:04:00;98865.34;;;9.80;100.00
47753;BME280;2038;51.728;6.674;2022-09-28T04:06:26;98857.66;;;9.78;100.00
47753;BME280;2038;51.728;6.674;2022-09-28T04:08:53;98861.41;;;9.88;100.00
47753;BME280;2038;51.728;6.674;2022-09-28T04:11:19;98861.22;;;9.83;100.00
47753;BME280;2038;51.728;6.674;2022-09-28T04:13:48;98863.59;;;9.79;100.00
47753;BME280;2038;51.728;6.674;2022-09-28T04:16:15;98867.84;;;9.78;100.00
47753;BME280;2038;51.728;6.674;2022-09-28T04:18:42;98867.78;;;9.77;100.00
47753;BME280;2038;51.728;6.674;2022-09-28T04:21:14;98866.78;;;9.73;100.00
47753;BME280;2038;51.728;6.674;2022-09-28T04:23:42;98865.84;;;9.71;100.00
47753;BME280;2038;51.728;6.674;2022-09-28T04:26:25;98866.69;;;9.70;100.00
47753;BME280;2038;51.728;6.674;2022-09-28T04:28:52;98867.69;;;9.75;100.00
47753;BME280;2038;51.728;6.674;2022-09-28T04:31:39;98872.59;;;9.71;100.00
47753;BME280;2038;51.728;6.674;2022-09-28T04:34:09;98866.91;;;9.76;100.00
47753;BME280;2038;51.728;6.674;2022-09-28T04:36:35;98867.19;;;9.84;100.00
47753;BME280;2038;51.728;6.674;2022-09-28T04:39:02;98869.72;;;9.84;100.00
47753;BME280;2038;51.728;6.674;2022-09-28T04:41:28;98861.13;;;9.80;100.00
47753;BME280;2038;51.728;6.674;2022-09-28T04:43:54;98864.75;;;9.87;100.00
47753;BME280;2038;51.728;6.674;2022-09-28T04:46:20;98860.34;;;9.83;100.00
47753;BME280;2038;51.728;6.674;2022-09-28T04:48:46;98861.19;;;9.82;100.00
47753;BME280;2038;51.728;6.674;2022-09-28T04:51:13;98865.41;;;9.81;100.00
47753;BME280;2038;51.728;6.674;2022-09-28T04:53:39;98856.03;;;9.80;100.00
47753;BME280;2038;51.728;6.674;2022-09-28T04:56:08;98862.19;;;9.87;100.00
47753;BME280;2038;51.728;6.674;2022-09-28T04:58:37;98862.50;;;9.95;100.00
47753;BME280;2038;51.728;6.674;2022-09-28T05:01:21;98852.16;;;9.90;100.00
47753;BME280;2038;51.728;6.674;2022-09-28T05:03:48;98860.06;;;9.98;100.00
47753;BME280;2038;51.728;6.674;2022-09-28T05:06:15;98863.50;;;9.98;100.00
47753;BME280;2038;51.728;6.674;2022-09-28T05:08:43;98862.03;;;10.05;100.00
47753;BME280;2038;51.728;6.674;2022-09-28T05:11:12;98862.66;;;9.99;100.00
47753;BME280;2038;51.728;6.674;2022-09-28T05:13:41;98860.25;;;10.02;100.00
47753;BME280;2038;51.728;6.674;2022-09-28T05:16:11;98855.28;;;10.05;100.00
47753;BME280;2038;51.728;6.674;2022-09-28T05:18:38;98859.38;;;10.02;100.00
47753;BME280;2038;51.728;6.674;2022-09-28T05:21:14;98861.13;;;10.03;100.00
47753;BME280;2038;51.728;6.674;2022-09-28T05:23:45;98856.50;;;9.93;100.00
47753;BME280;2038;51.728;6.674;2022-09-28T05:26:12;98853.25;;;9.97;100.00
47753;BME280;2038;51.728;6.674;2022-09-28T05:28:39;98853.94;;;9.93;100.00
47753;BME280;2038;51.728;6.674;2022-09-28T05:31:05;98856.31;;;9.88;100.00
47753;BME280;2038;51.728;6.674;2022-09-28T05:33:32;98852.97;;;9.89;100.00
47753;BME280;2038;51.728;6.674;2022-09-28T05:35:59;98845.06;;;9.81;100.00
47753;BME280;2038;51.728;6.674;2022-09-28T05:38:25;98851.28;;;9.90;100.00
47753;BME280;2038;51.728;6.674;2022-09-28T05:40:52;98858.16;;;9.92;100.00
47753;BME280;2038;51.728;6.674;2022-09-28T05:43:18;98858.41;;;9.98;100.00
47753;BME280;2038;51.728;6.674;2022-09-28T05:45:44;98860.19;;;10.01;100.00
47753;BME280;2038;51.728;6.674;2022-09-28T05:48:11;98866.16;;;10.01;100.00
47753;BME280;2038;51.728;6.674;2022-09-28T05:50:37;98861.13;;;10.03;100.00
47753;BME280;2038;51.728;6.674;2022-09-28T05:53:06;98863.78;;;10.06;100.00
47753;BME280;2038;51.728;6.674;2022-09-28T05:55:34;98867.41;;;10.12;100.00
47753;BME280;2038;51.728;6.674;2022-09-28T05:58:03;98867.81;;;10.01;100.00
47753;BME280;2038;51.728;6.674;2022-09-28T06:00:32;98872.97;;;10.02;100.00
47753;BME280;2038;51.728;6.674;2022-09-28T06:03:02;98874.47;;;9.97;100.00
47753;BME280;2038;51.728;6.674;2022-09-28T06:05:32;98875.25;;;9.95;100.00
47753;BME280;2038;51.728;6.674;2022-09-28T06:08:00;98878.69;;;9.97;100.00
47753;BME280;2038;51.728;6.674;2022-09-28T06:10:27;98880.19;;;9.92;100.00
47753;BME280;2038;51.728;6.674;2022-09-28T06:12:55;98877.72;;;9.93;100.00
47753;BME280;2038;51.728;6.674;2022-09-28T06:15:24;98878.94;;;10.03;100.00
47753;BME280;2038;51.728;6.674;2022-09-28T06:18:05;98888.28;;;10.04;100.00
47753;BME280;2038;51.728;6.674;2022-09-28T06:20:36;98884.06;;;10.04;100.00
47753;BME280;2038;51.728;6.674;2022-09-28T06:23:06;98892.81;;;10.11;100.00
47753;BME280;2038;51.728;6.674;2022-09-28T06:25:33;98891.38;;;10.17;100.00
47753;BME280;2038;51.728;6.674;2022-09-28T06:28:19;98898.75;;;10.11;100.00
47753;BME280;2038;51.728;6.674;2022-09-28T06:30:45;98902.53;;;10.21;100.00
47753;BME280;2038;51.728;6.674;2022-09-28T06:33:13;98910.41;;;10.27;100.00
47753;BME280;2038;51.728;6.674;2022-09-28T06:35:40;98905.19;;;10.24;100.00
47753;BME280;2038;51.728;6.674;2022-09-28T06:38:07;98915.38;;;10.24;100.00
47753;BME280;2038;51.728;6.674;2022-09-28T06:40:34;98914.69;;;10.28;100.00
47753;BME280;2038;51.728;6.674;2022-09-28T06:43:05;98921.69;;;10.33;100.00
47753;BME280;2038;51.728;6.674;2022-09-28T06:45:39;98922.72;;;10.39;100.00
47753;BME280;2038;51.728;6.674;2022-09-28T06:48:08;98918.38;;;10.36;100.00
47753;BME280;2038;51.728;6.674;2022-09-28T06:50:38;98919.41;;;10.41;100.00
47753;BME280;2038;51.728;6.674;2022-09-28T06:53:07;98919.69;;;10.49;100.00
47753;BME280;2038;51.728;6.674;2022-09-28T06:55:38;98919.78;;;10.52;100.00
47753;BME280;2038;51.728;6.674;2022-09-28T06:58:14;98922.16;;;10.47;100.00
47753;BME280;2038;51.728;6.674;2022-09-28T07:00:42;98911.28;;;10.51;100.00
47753;BME280;2038;51.728;6.674;2022-09-28T07:03:17;98916.53;;;10.56;100.00
47753;BME280;2038;51.728;6.674;2022-09-28T07:05:50;98918.63;;;10.66;100.00
47753;BME280;2038;51.728;6.674;2022-09-28T07:08:23;98921.34;;;10.70;100.00
47753;BME280;2038;51.728;6.674;2022-09-28T07:10:52;98923.28;;;10.77;100.00
47753;BME280;2038;51.728;6.674;2022-09-28T07:13:25;98923.19;;;10.74;100.00
47753;BME280;2038;51.728;6.674;2022-09-28T07:15:54;98928.53;;;10.82;100.00
47753;BME280;2038;51.728;6.674;2022-09-28T07:18:21;98934.69;;;10.89;100.00
47753;BME280;2038;51.728;6.674;2022-09-28T07:20:48;98938.06;;;10.88;100.00
47753;BME280;2038;51.728;6.674;2022-09-28T07:23:15;98934.09;;;10.96;100.00
47753;BME280;2038;51.728;6.674;2022-09-28T07:25:45;98934.69;;;10.89;100.00
47753;BME280;2038;51.728;6.674;2022-09-28T07:28:14;98935.56;;;10.89;100.00
47753;BME280;2038;51.728;6.674;2022-09-28T07:30:42;98945.13;;;10.95;100.00
47753;BME280;2038;51.728;6.674;2022-09-28T07:33:11;98944.53;;;11.03;100.00
47753;BME280;2038;51.728;6.674;2022-09-28T07:35:39;98950.41;;;11.01;100.00
47753;BME280;2038;51.728;6.674;2022-09-28T07:38:08;98958.13;;;11.02;100.00
47753;BME280;2038;51.728;6.674;2022-09-28T07:40:35;98956.22;;;10.97;100.00
47753;BME280;2038;51.728;6.674;2022-09-28T07:43:21;98962.44;;;11.05;100.00
47753;BME280;2038;51.728;6.674;2022-09-28T07:45:49;98963.47;;;11.10;100.00
47753;BME280;2038;51.728;6.674;2022-09-28T07:48:17;98964.19;;;11.06;100.00
47753;BME280;2038;51.728;6.674;2022-09-28T07:50:51;98967.28;;;10.97;100.00
47753;BME280;2038;51.728;6.674;2022-09-28T07:53:21;98969.19;;;11.03;100.00
47753;BME280;2038;51.728;6.674;2022-09-28T07:55:57;98970.72;;;10.98;100.00
47753;BME280;2038;51.728;6.674;2022-09-28T07:58:27;98971.31;;;10.91;100.00
47753;BME280;2038;51.728;6.674;2022-09-28T08:00:53;98972.66;;;10.81;100.00
47753;BME280;2038;51.728;6.674;2022-09-28T08:03:20;98966.22;;;10.91;100.00
47753;BME280;2038;51.728;6.674;2022-09-28T08:05:49;98976.13;;;11.07;100.00
47753;BME280;2038;51.728;6.674;2022-09-28T08:08:15;98984.03;;;11.14;100.00
47753;BME280;2038;51.728;6.674;2022-09-28T08:10:43;98985.81;;;11.17;100.00
47753;BME280;2038;51.728;6.674;2022-09-28T08:13:10;98985.88;;;11.18;100.00
47753;BME280;2038;51.728;6.674;2022-09-28T08:15:36;98991.41;;;11.31;100.00
47753;BME280;2038;51.728;6.674;2022-09-28T08:18:06;98994.22;;;11.38;100.00
47753;BME280;2038;51.728;6.674;2022-09-28T08:20:32;98988.59;;;11.48;100.00
47753;BME280;2038;51.728;6.674;2022-09-28T08:23:17;98994.38;;;11.43;100.00
47753;BME280;2038;51.728;6.674;2022-09-28T08:25:49;98999.34;;;11.40;100.00
47753;BME280;2038;51.728;6.674;2022-09-28T08:28:19;98992.31;;;11.58;100.00
47753;BME280;2038;51.728;6.674;2022-09-28T08:30:47;98999.72;;;11.50;100.00
47753;BME280;2038;51.728;6.674;2022-09-28T08:33:16;99001.75;;;11.60;100.00
47753;BME280;2038;51.728;6.674;2022-09-28T08:35:45;99004.03;;;11.53;100.00
47753;BME280;2038;51.728;6.674;2022-09-28T08:38:11;99006.97;;;11.63;100.00
47753;BME280;2038;51.728;6.674;2022-09-28T08:46:55;99025.25;;;11.52;100.00
47753;BME280;2038;51.728;6.674;2022-09-28T08:52:16;99026.34;;;11.58;100.00
47753;BME280;2038;51.728;6.674;2022-09-28T08:57:49;99037.84;;;11.71;100.00
47753;BME280;2038;51.728;6.674;2022-09-28T09:00:50;99040.56;;;11.76;100.00
47753;BME280;2038;51.728;6.674;2022-09-28T09:03:22;99034.88;;;11.84;100.00
47753;BME280;2038;51.728;6.674;2022-09-28T09:06:19;99040.38;;;11.96;100.00
47753;BME280;2038;51.728;6.674;2022-09-28T09:09:21;99041.56;;;12.06;100.00
47753;BME280;2038;51.728;6.674;2022-09-28T09:15:16;99051.34;;;12.19;100.00
47753;BME280;2038;51.728;6.674;2022-09-28T09:20:52;99056.44;;;12.46;100.00
47753;BME280;2038;51.728;6.674;2022-09-28T09:23:37;99046.38;;;12.50;100.00
47753;BME280;2038;51.728;6.674;2022-09-28T09:26:39;99049.31;;;12.64;100.00
47753;BME280;2038;51.728;6.674;2022-09-28T09:36:02;99049.97;;;12.57;100.00
47753;BME280;2038;51.728;6.674;2022-09-28T09:38:47;99056.25;;;12.68;100.00
47753;BME280;2038;51.728;6.674;2022-09-28T09:47:47;99052.88;;;12.41;100.00
47753;BME280;2038;51.728;6.674;2022-09-28T09:50:32;99052.19;;;12.46;100.00
47753;BME280;2038;51.728;6.674;2022-09-28T09:53:30;99051.66;;;12.56;100.00
47753;BME280;2038;51.728;6.674;2022-09-28T09:56:25;99050.69;;;12.81;100.00
47753;BME280;2038;51.728;6.674;2022-09-28T09:59:06;99053.88;;;13.02;100.00
47753;BME280;2038;51.728;6.674;2022-09-28T10:01:39;99055.34;;;13.24;100.00
47753;BME280;2038;51.728;6.674;2022-09-28T10:07:12;99053.97;;;13.35;100.00
47753;BME280;2038;51.728;6.674;2022-09-28T10:09:47;99062.06;;;13.21;100.00
47753;BME280;2038;51.728;6.674;2022-09-28T10:12:20;99063.47;;;13.41;100.00
47753;BME280;2038;51.728;6.674;2022-09-28T10:14:48;99055.47;;;13.29;100.00
47753;BME280;2038;51.728;6.674;2022-09-28T10:17:18;99062.31;;;13.30;100.00
47753;BME280;2038;51.728;6.674;2022-09-28T10:19:51;99054.91;;;13.39;100.00
47753;BME280;2038;51.728;6.674;2022-09-28T10:22:23;99057.78;;;13.51;100.00
47753;BME280;2038;51.728;6.674;2022-09-28T10:24:53;99049.31;;;13.53;100.00
47753;BME280;2038;51.728;6.674;2022-09-28T10:27:24;99067.44;;;13.61;100.00
47753;BME280;2038;51.728;6.674;2022-09-28T10:30:33;99060.56;;;13.58;100.00
47753;BME280;2038;51.728;6.674;2022-09-28T10:33:30;99059.06;;;13.68;100.00
47753;BME280;2038;51.728;6.674;2022-09-28T10:36:09;99050.81;;;13.78;100.00
47753;BME280;2038;51.728;6.674;2022-09-28T10:38:36;99050.97;;;13.84;100.00
47753;BME280;2038;51.728;6.674;2022-09-28T10:41:17;99061.19;;;13.83;100.00
47753;BME280;2038;51.728;6.674;2022-09-28T10:43:53;99064.25;;;13.70;100.00
47753;BME280;2038;51.728;6.674;2022-09-28T10:46:37;99070.91;;;13.63;100.00
47753;BME280;2038;51.728;6.674;2022-09-28T10:49:14;99068.97;;;13.54;100.00
47753;BME280;2038;51.728;6.674;2022-09-28T10:51:57;99069.22;;;13.64;100.00
47753;BME280;2038;51.728;6.674;2022-09-28T10:54:28;99072.84;;;13.72;100.00
47753;BME280;2038;51.728;6.674;2022-09-28T10:57:25;99058.81;;;13.90;100.00
47753;BME280;2038;51.728;6.674;2022-09-28T10:59:52;99060.56;;;13.93;100.00
47753;BME280;2038;51.728;6.674;2022-09-28T11:02:23;99067.72;;;14.06;100.00
47753;BME280;2038;51.728;6.674;2022-09-28T11:05:03;99070.19;;;14.01;100.00
47753;BME280;2038;51.728;6.674;2022-09-28T11:07:33;99066.94;;;14.08;100.00
47753;BME280;2038;51.728;6.674;2022-09-28T11:10:23;99077.84;;;14.01;100.00
47753;BME280;2038;51.728;6.674;2022-09-28T11:12:52;99077.78;;;13.98;100.00
47753;BME280;2038;51.728;6.674;2022-09-28T11:15:23;99077.09;;;14.05;100.00
47753;BME280;2038;51.728;6.674;2022-09-28T11:17:53;99079.03;;;14.14;100.00
47753;BME280;2038;51.728;6.674;2022-09-28T11:20:30;99078.16;;;14.14;100.00
47753;BME280;2038;51.728;6.674;2022-09-28T11:23:15;99081.41;;;14.06;99.79
47753;BME280;2038;51.728;6.674;2022-09-28T11:25:59;99075.97;;;13.94;100.00
47753;BME280;2038;51.728;6.674;2022-09-28T11:28:31;99072.81;;;14.04;100.00
47753;BME280;2038;51.728;6.674;2022-09-28T11:31:02;99065.81;;;13.97;100.00
47753;BME280;2038;51.728;6.674;2022-09-28T11:33:35;99077.28;;;14.13;100.00
47753;BME280;2038;51.728;6.674;2022-09-28T11:39:03;99067.91;;;14.12;100.00
47753;BME280;2038;51.728;6.674;2022-09-28T11:44:45;99070.06;;;14.31;100.00
47753;BME280;2038;51.728;6.674;2022-09-28T11:50:26;99081.84;;;14.25;100.00
47753;BME280;2038;51.728;6.674;2022-09-28T11:53:37;99066.78;;;14.37;100.00
47753;BME280;2038;51.728;6.674;2022-09-28T11:59:12;99072.25;;;14.50;100.00
47753;BME280;2038;51.728;6.674;2022-09-28T12:01:46;99066.34;;;14.55;100.00
47753;BME280;2038;51.728;6.674;2022-09-28T12:04:20;99066.13;;;14.44;100.00
47753;BME280;2038;51.728;6.674;2022-09-28T12:07:02;99069.53;;;14.44;100.00
47753;BME280;2038;51.728;6.674;2022-09-28T12:12:31;99071.59;;;14.61;100.00
47753;BME280;2038;51.728;6.674;2022-09-28T12:15:14;99069.13;;;14.64;100.00
47753;BME280;2038;51.728;6.674;2022-09-28T12:20:37;99070.69;;;14.96;100.00
47753;BME280;2038;51.728;6.674;2022-09-28T12:29:21;99065.44;;;15.33;99.28
47753;BME280;2038;51.728;6.674;2022-09-28T12:32:24;99076.31;;;15.20;98.18
47753;BME280;2038;51.728;6.674;2022-09-28T12:34:56;99076.03;;;15.07;93.95
47753;BME280;2038;51.728;6.674;2022-09-28T12:37:36;99070.94;;;15.08;95.68
47753;BME280;2038;51.728;6.674;2022-09-28T12:40:18;99070.03;;;15.06;97.40
47753;BME280;2038;51.728;6.674;2022-09-28T12:43:31;99073.50;;;15.08;96.93
47753;BME280;2038;51.728;6.674;2022-09-28T12:46:29;99066.69;;;15.10;96.14
47753;BME280;2038;51.728;6.674;2022-09-28T12:49:19;99070.13;;;15.11;96.84
47753;BME280;2038;51.728;6.674;2022-09-28T12:51:57;99064.94;;;15.09;97.28
47753;BME280;2038;51.728;6.674;2022-09-28T12:55:01;99067.41;;;15.05;97.48
47753;BME280;2038;51.728;6.674;2022-09-28T12:58:22;99066.66;;;15.09;97.79
47753;BME280;2038;51.728;6.674;2022-09-28T13:01:03;99065.03;;;15.14;97.66
47753;BME280;2038;51.728;6.674;2022-09-28T13:09:26;99062.03;;;15.34;98.05
47753;BME280;2038;51.728;6.674;2022-09-28T13:15:58;99052.72;;;15.84;99.01
47753;BME280;2038;51.728;6.674;2022-09-28T13:18:48;99062.31;;;15.95;96.04
47753;BME280;2038;51.728;6.674;2022-09-28T13:21:35;99060.84;;;16.09;94.86
47753;BME280;2038;51.728;6.674;2022-09-28T13:24:19;99053.03;;;16.03;94.01
47753;BME280;2038;51.728;6.674;2022-09-28T13:26:52;99057.41;;;16.10;95.80
47753;BME280;2038;51.728;6.674;2022-09-28T13:29:24;99057.59;;;16.22;95.93
47753;BME280;2038;51.728;6.674;2022-09-28T13:31:57;99055.88;;;16.21;93.35
47753;BME280;2038;51.728;6.674;2022-09-28T13:34:27;99059.38;;;16.24;93.50
47753;BME280;2038;51.728;6.674;2022-09-28T13:37:09;99049.25;;;16.35;92.84
47753;BME280;2038;51.728;6.674;2022-09-28T13:39:49;99051.84;;;16.38;92.92
47753;BME280;2038;51.728;6.674;2022-09-28T13:48:02;99058.59;;;16.28;92.54
47753;BME280;2038;51.728;6.674;2022-09-28T13:59:33;99063.91;;;16.42;91.50
47753;BME280;2038;51.728;6.674;2022-09-28T14:02:41;99057.09;;;16.44;91.30
47753;BME280;2038;51.728;6.674;2022-09-28T14:11:22;99060.84;;;16.10;92.87
47753;BME280;2038;51.728;6.674;2022-09-28T14:16:38;99061.22;;;15.80;94.51
47753;BME280;2038;51.728;6.674;2022-09-28T14:28:25;99065.13;;;15.18;96.56
47753;BME280;2038;51.728;6.674;2022-09-28T14:31:06;99062.28;;;15.05;98.03
47753;BME280;2038;51.728;6.674;2022-09-28T14:33:39;99061.31;;;14.98;98.94
47753;BME280;2038;51.728;6.674;2022-09-28T14:36:22;99074.03;;;14.93;99.57
47753;BME280;2038;51.728;6.674;2022-09-28T14:39:26;99068.91;;;14.93;100.00
47753;BME280;2038;51.728;6.674;2022-09-28T14:42:17;99078.22;;;14.90;100.00
47753;BME280;2038;51.728;6.674;2022-09-28T14:47:34;99077.47;;;14.94;99.99
47753;BME280;2038;51.728;6.674;2022-09-28T14:50:26;99083.75;;;14.68;100.00
47753;BME280;2038;51.728;6.674;2022-09-28T14:53:03;99082.81;;;14.64;100.00
47753;BME280;2038;51.728;6.674;2022-09-28T14:55:45;99081.31;;;14.74;100.00
47753;BME280;2038;51.728;6.674;2022-09-28T14:58:21;99086.63;;;14.83;100.00
47753;BME280;2038;51.728;6.674;2022-09-28T15:01:00;99092.59;;;14.82;100.00
47753;BME280;2038;51.728;6.674;2022-09-28T15:03:32;99099.47;;;14.83;100.00
47753;BME280;2038;51.728;6.674;2022-09-28T15:06:01;99098.00;;;14.94;100.00
47753;BME280;2038;51.728;6.674;2022-09-28T15:08:37;99100.50;;;14.91;100.00
47753;BME280;2038;51.728;6.674;2022-09-28T15:11:07;99103.84;;;14.88;100.00
47753;BME280;2038;51.728;6.674;2022-09-28T15:13:41;99104.25;;;14.68;100.00
47753;BME280;2038;51.728;6.674;2022-09-28T15:16:14;99105.84;;;14.63;100.00
47753;BME280;2038;51.728;6.674;2022-09-28T15:21:49;99107.03;;;14.41;100.00
47753;BME280;2038;51.728;6.674;2022-09-28T15:24:32;99106.00;;;14.34;100.00
47753;BME280;2038;51.728;6.674;2022-09-28T15:27:01;99108.44;;;14.30;100.00
47753;BME280;2038;51.728;6.674;2022-09-28T15:29:35;99101.56;;;14.27;100.00
47753;BME280;2038;51.728;6.674;2022-09-28T15:32:01;99099.78;;;14.25;100.00
47753;BME280;2038;51.728;6.674;2022-09-28T15:34:33;99104.75;;;14.19;100.00
47753;BME280;2038;51.728;6.674;2022-09-28T15:37:18;99106.34;;;14.14;100.00
47753;BME280;2038;51.728;6.674;2022-09-28T15:39:52;99111.13;;;14.00;100.00
47753;BME280;2038;51.728;6.674;2022-09-28T15:42:20;99120.41;;;13.96;100.00
47753;BME280;2038;51.728;6.674;2022-09-28T15:47:54;99115.19;;;13.92;100.00
47753;BME280;2038;51.728;6.674;2022-09-28T15:50:51;99120.19;;;13.87;100.00
47753;BME280;2038;51.728;6.674;2022-09-28T15:53:22;99120.75;;;13.77;100.00
47753;BME280;2038;51.728;6.674;2022-09-28T15:55:49;99126.56;;;13.70;100.00
47753;BME280;2038;51.728;6.674;2022-09-28T15:58:19;99121.09;;;13.58;100.00
47753;BME280;2038;51.728;6.674;2022-09-28T16:01:15;99133.84;;;13.55;100.00
47753;BME280;2038;51.728;6.674;2022-09-28T16:03:51;99140.78;;;13.60;100.00